sensor_id;sensor_type;location;lat;lon;timestamp;P1;durP1;ratioP1;P2;durP2;ratioP2
20324;SDS011;10320;49.482;11.256;2022-11-03T00:00:07;12.10;;;9.00;;
20324;SDS011;10320;49.482;11.256;2022-11-03T00:02:35;12.93;;;8.57;;
20324;SDS011;10320;49.482;11.256;2022-11-03T00:05:01;13.43;;;8.67;;
20324;SDS011;10320;49.482;11.256;2022-11-03T00:07:47;10.20;;;8.97;;
20324;SDS011;10320;49.482;11.256;2022-11-03T00:10:13;11.97;;;8.30;;
20324;SDS011;10320;49.482;11.256;2022-11-03T00:12:40;14.10;;;9.73;;
20324;SDS011;10320;49.482;11.256;2022-11-03T00:15:07;10.50;;;8.73;;
20324;SDS011;10320;49.482;11.256;2022-11-03T00:17:33;14.23;;;9.60;;
20324;SDS011;10320;49.482;11.256;2022-11-03T00:20:00;15.17;;;9.57;;
20324;SDS011;10320;49.482;11.256;2022-11-03T00:22:26;13.83;;;9.53;;
20324;SDS011;10320;49.482;11.256;2022-11-03T00:24:53;15.30;;;10.40;;
20324;SDS011;10320;49.482;11.256;2022-11-03T00:27:20;17.93;;;10.50;;
20324;SDS011;10320;49.482;11.256;2022-11-03T00:29:46;14.03;;;10.20;;
20324;SDS011;10320;49.482;11.256;2022-11-03T00:32:12;13.27;;;9.53;;
20324;SDS011;10320;49.482;11.256;2022-11-03T00:34:38;13.67;;;9.60;;
20324;SDS011;10320;49.482;11.256;2022-11-03T00:37:04;15.60;;;10.20;;
20324;SDS011;10320;49.482;11.256;2022-11-03T00:39:30;12.77;;;10.10;;
20324;SDS011;10320;49.482;11.256;2022-11-03T00:41:56;14.30;;;10.10;;
20324;SDS011;10320;49.482;11.256;2022-11-03T00:44:23;12.80;;;9.33;;
20324;SDS011;10320;49.482;11.256;2022-11-03T00:46:50;12.47;;;9.53;;
20324;SDS011;10320;49.482;11.256;2022-11-03T00:49:16;12.73;;;9.60;;
20324;SDS011;10320;49.482;11.256;2022-11-03T00:51:42;11.27;;;8.77;;
20324;SDS011;10320;49.482;11.256;2022-11-03T00:54:08;14.47;;;9.10;;
20324;SDS011;10320;49.482;11.256;2022-11-03T00:56:35;11.97;;;8.73;;
20324;SDS011;10320;49.482;11.256;2022-11-03T00:59:02;11.60;;;8.93;;
20324;SDS011;10320;49.482;11.256;2022-11-03T01:01:29;12.40;;;9.30;;
20324;SDS011;10320;49.482;11.256;2022-11-03T01:03:56;12.47;;;8.53;;
20324;SDS011;10320;49.482;11.256;2022-11-03T01:06:42;13.83;;;9.40;;
20324;SDS011;10320;49.482;11.256;2022-11-03T01:09:19;12.00;;;8.90;;
20324;SDS011;10320;49.482;11.256;2022-11-03T01:11:49;10.47;;;8.70;;
20324;SDS011;10320;49.482;11.256;2022-11-03T01:14:16;11.37;;;8.70;;
20324;SDS011;10320;49.482;11.256;2022-11-03T01:16:42;13.87;;;8.63;;
20324;SDS011;10320;49.482;11.256;2022-11-03T01:19:08;11.33;;;8.13;;
20324;SDS011;10320;49.482;11.256;2022-11-03T01:21:34;12.50;;;8.67;;
20324;SDS011;10320;49.482;11.256;2022-11-03T01:24:00;14.23;;;8.80;;
20324;SDS011;10320;49.482;11.256;2022-11-03T01:26:27;10.03;;;8.17;;
20324;SDS011;10320;49.482;11.256;2022-11-03T01:28:53;12.20;;;8.77;;
20324;SDS011;10320;49.482;11.256;2022-11-03T01:31:20;13.87;;;8.20;;
20324;SDS011;10320;49.482;11.256;2022-11-03T01:33:47;12.60;;;8.10;;
20324;SDS011;10320;49.482;11.256;2022-11-03T01:36:14;10.90;;;7.87;;
20324;SDS011;10320;49.482;11.256;2022-11-03T01:38:40;12.53;;;8.27;;
20324;SDS011;10320;49.482;11.256;2022-11-03T01:41:08;13.40;;;8.37;;
20324;SDS011;10320;49.482;11.256;2022-11-03T01:43:36;11.80;;;7.97;;
20324;SDS011;10320;49.482;11.256;2022-11-03T01:48:47;14.20;;;7.93;;
20324;SDS011;10320;49.482;11.256;2022-11-03T01:51:14;12.80;;;8.40;;
20324;SDS011;10320;49.482;11.256;2022-11-03T01:53:42;12.40;;;8.30;;
20324;SDS011;10320;49.482;11.256;2022-11-03T01:56:10;11.83;;;7.83;;
20324;SDS011;10320;49.482;11.256;2022-11-03T01:58:38;11.77;;;7.77;;
20324;SDS011;10320;49.482;11.256;2022-11-03T02:01:05;14.13;;;8.53;;
20324;SDS011;10320;49.482;11.256;2022-11-03T02:03:33;10.27;;;8.17;;
20324;SDS011;10320;49.482;11.256;2022-11-03T02:05:59;11.30;;;7.70;;
20324;SDS011;10320;49.482;11.256;2022-11-03T02:08:40;15.00;;;8.10;;
20324;SDS011;10320;49.482;11.256;2022-11-03T02:11:08;11.97;;;8.70;;
20324;SDS011;10320;49.482;11.256;2022-11-03T02:13:53;12.73;;;8.37;;
20324;SDS011;10320;49.482;11.256;2022-11-03T02:16:19;11.83;;;8.20;;
20324;SDS011;10320;49.482;11.256;2022-11-03T02:18:46;11.60;;;7.70;;
20324;SDS011;10320;49.482;11.256;2022-11-03T02:21:29;11.63;;;8.17;;
20324;SDS011;10320;49.482;11.256;2022-11-03T02:23:58;12.13;;;8.33;;
20324;SDS011;10320;49.482;11.256;2022-11-03T02:26:27;11.43;;;8.40;;
20324;SDS011;10320;49.482;11.256;2022-11-03T02:28:53;12.43;;;7.43;;
20324;SDS011;10320;49.482;11.256;2022-11-03T02:34:03;12.30;;;8.30;;
20324;SDS011;10320;49.482;11.256;2022-11-03T02:36:50;10.37;;;8.13;;
20324;SDS011;10320;49.482;11.256;2022-11-03T02:39:20;10.97;;;8.60;;
20324;SDS011;10320;49.482;11.256;2022-11-03T02:41:48;15.67;;;9.30;;
20324;SDS011;10320;49.482;11.256;2022-11-03T02:44:15;12.67;;;9.27;;
20324;SDS011;10320;49.482;11.256;2022-11-03T02:46:42;13.97;;;8.20;;
20324;SDS011;10320;49.482;11.256;2022-11-03T02:49:08;13.57;;;8.57;;
20324;SDS011;10320;49.482;11.256;2022-11-03T02:51:35;15.50;;;8.53;;
20324;SDS011;10320;49.482;11.256;2022-11-03T02:54:15;12.33;;;8.10;;
20324;SDS011;10320;49.482;11.256;2022-11-03T02:56:53;11.23;;;8.40;;
20324;SDS011;10320;49.482;11.256;2022-11-03T02:59:24;13.73;;;8.53;;
20324;SDS011;10320;49.482;11.256;2022-11-03T03:01:57;13.83;;;9.07;;
20324;SDS011;10320;49.482;11.256;2022-11-03T03:04:26;16.43;;;9.83;;
20324;SDS011;10320;49.482;11.256;2022-11-03T03:06:56;14.07;;;9.33;;
20324;SDS011;10320;49.482;11.256;2022-11-03T03:09:24;16.33;;;9.00;;
20324;SDS011;10320;49.482;11.256;2022-11-03T03:11:52;14.10;;;8.90;;
20324;SDS011;10320;49.482;11.256;2022-11-03T03:14:34;16.10;;;9.50;;
20324;SDS011;10320;49.482;11.256;2022-11-03T03:17:11;11.13;;;8.10;;
20324;SDS011;10320;49.482;11.256;2022-11-03T03:19:49;12.57;;;9.00;;
20324;SDS011;10320;49.482;11.256;2022-11-03T03:22:24;11.03;;;8.07;;
20324;SDS011;10320;49.482;11.256;2022-11-03T03:25:10;14.87;;;8.03;;
20324;SDS011;10320;49.482;11.256;2022-11-03T03:27:41;10.13;;;8.60;;
20324;SDS011;10320;49.482;11.256;2022-11-03T03:30:08;10.70;;;7.90;;
20324;SDS011;10320;49.482;11.256;2022-11-03T03:32:36;10.20;;;7.90;;
20324;SDS011;10320;49.482;11.256;2022-11-03T03:35:04;12.70;;;7.97;;
20324;SDS011;10320;49.482;11.256;2022-11-03T03:37:32;11.67;;;7.90;;
20324;SDS011;10320;49.482;11.256;2022-11-03T03:39:59;11.93;;;7.73;;
20324;SDS011;10320;49.482;11.256;2022-11-03T03:42:28;15.63;;;8.63;;
20324;SDS011;10320;49.482;11.256;2022-11-03T03:44:55;9.57;;;7.87;;
20324;SDS011;10320;49.482;11.256;2022-11-03T03:47:28;10.77;;;7.50;;
20324;SDS011;10320;49.482;11.256;2022-11-03T03:49:55;12.33;;;7.50;;
20324;SDS011;10320;49.482;11.256;2022-11-03T03:52:21;13.53;;;7.80;;
20324;SDS011;10320;49.482;11.256;2022-11-03T03:54:47;12.07;;;8.07;;
20324;SDS011;10320;49.482;11.256;2022-11-03T03:57:21;14.37;;;8.97;;
20324;SDS011;10320;49.482;11.256;2022-11-03T03:59:48;10.00;;;8.23;;
20324;SDS011;10320;49.482;11.256;2022-11-03T04:02:14;11.30;;;7.87;;
20324;SDS011;10320;49.482;11.256;2022-11-03T04:04:40;11.73;;;8.00;;
20324;SDS011;10320;49.482;11.256;2022-11-03T04:07:06;13.93;;;8.37;;
20324;SDS011;10320;49.482;11.256;2022-11-03T04:09:50;10.53;;;7.77;;
20324;SDS011;10320;49.482;11.256;2022-11-03T04:12:16;10.33;;;7.77;;
20324;SDS011;10320;49.482;11.256;2022-11-03T04:15:01;12.70;;;7.23;;
20324;SDS011;10320;49.482;11.256;2022-11-03T04:17:46;16.23;;;8.77;;
20324;SDS011;10320;49.482;11.256;2022-11-03T04:20:31;13.23;;;8.00;;
20324;SDS011;10320;49.482;11.256;2022-11-03T04:23:17;10.13;;;7.43;;
20324;SDS011;10320;49.482;11.256;2022-11-03T04:25:47;11.97;;;7.77;;
20324;SDS011;10320;49.482;11.256;2022-11-03T04:28:14;10.20;;;7.57;;
20324;SDS011;10320;49.482;11.256;2022-11-03T04:30:40;11.77;;;7.00;;
20324;SDS011;10320;49.482;11.256;2022-11-03T04:33:11;12.20;;;7.87;;
20324;SDS011;10320;49.482;11.256;2022-11-03T04:35:38;11.37;;;7.63;;
20324;SDS011;10320;49.482;11.256;2022-11-03T04:38:15;10.50;;;6.77;;
20324;SDS011;10320;49.482;11.256;2022-11-03T04:40:44;12.33;;;7.80;;
20324;SDS011;10320;49.482;11.256;2022-11-03T04:43:13;12.77;;;7.93;;
20324;SDS011;10320;49.482;11.256;2022-11-03T04:45:41;11.17;;;7.13;;
20324;SDS011;10320;49.482;11.256;2022-11-03T04:48:15;13.47;;;8.07;;
20324;SDS011;10320;49.482;11.256;2022-11-03T04:50:41;10.13;;;8.03;;
20324;SDS011;10320;49.482;11.256;2022-11-03T04:53:27;13.83;;;7.87;;
20324;SDS011;10320;49.482;11.256;2022-11-03T04:55:53;12.57;;;7.93;;
20324;SDS011;10320;49.482;11.256;2022-11-03T04:58:20;14.70;;;8.10;;
20324;SDS011;10320;49.482;11.256;2022-11-03T05:00:50;13.70;;;8.77;;
20324;SDS011;10320;49.482;11.256;2022-11-03T05:03:19;15.40;;;9.03;;
20324;SDS011;10320;49.482;11.256;2022-11-03T05:05:46;17.50;;;9.80;;
20324;SDS011;10320;49.482;11.256;2022-11-03T05:08:12;14.63;;;8.93;;
20324;SDS011;10320;49.482;11.256;2022-11-03T05:10:40;16.13;;;9.23;;
20324;SDS011;10320;49.482;11.256;2022-11-03T05:13:20;16.80;;;9.57;;
20324;SDS011;10320;49.482;11.256;2022-11-03T05:15:47;15.60;;;9.27;;
20324;SDS011;10320;49.482;11.256;2022-11-03T05:18:15;12.63;;;8.70;;
20324;SDS011;10320;49.482;11.256;2022-11-03T05:23:38;18.63;;;11.07;;
20324;SDS011;10320;49.482;11.256;2022-11-03T05:26:06;17.20;;;10.70;;
20324;SDS011;10320;49.482;11.256;2022-11-03T05:28:43;15.10;;;10.00;;
20324;SDS011;10320;49.482;11.256;2022-11-03T05:31:23;17.37;;;10.70;;
20324;SDS011;10320;49.482;11.256;2022-11-03T05:33:49;17.80;;;10.13;;
20324;SDS011;10320;49.482;11.256;2022-11-03T05:36:18;16.73;;;10.50;;
20324;SDS011;10320;49.482;11.256;2022-11-03T05:38:44;16.67;;;10.60;;
20324;SDS011;10320;49.482;11.256;2022-11-03T05:41:13;17.33;;;10.23;;
20324;SDS011;10320;49.482;11.256;2022-11-03T05:43:40;16.83;;;10.73;;
20324;SDS011;10320;49.482;11.256;2022-11-03T05:46:07;18.67;;;10.60;;
20324;SDS011;10320;49.482;11.256;2022-11-03T05:48:39;19.70;;;10.93;;
20324;SDS011;10320;49.482;11.256;2022-11-03T05:51:11;17.87;;;10.63;;
20324;SDS011;10320;49.482;11.256;2022-11-03T05:53:38;18.70;;;11.23;;
20324;SDS011;10320;49.482;11.256;2022-11-03T05:56:09;20.80;;;12.00;;
20324;SDS011;10320;49.482;11.256;2022-11-03T05:58:37;18.53;;;11.40;;
20324;SDS011;10320;49.482;11.256;2022-11-03T06:01:10;18.07;;;12.10;;
20324;SDS011;10320;49.482;11.256;2022-11-03T06:03:37;18.63;;;10.90;;
20324;SDS011;10320;49.482;11.256;2022-11-03T06:06:10;18.17;;;11.57;;
20324;SDS011;10320;49.482;11.256;2022-11-03T06:08:38;17.67;;;11.03;;
20324;SDS011;10320;49.482;11.256;2022-11-03T06:11:04;18.67;;;11.20;;
20324;SDS011;10320;49.482;11.256;2022-11-03T06:13:33;21.40;;;11.53;;
20324;SDS011;10320;49.482;11.256;2022-11-03T06:16:46;17.63;;;11.33;;
20324;SDS011;10320;49.482;11.256;2022-11-03T06:18:46;20.20;;;12.17;;
20324;SDS011;10320;49.482;11.256;2022-11-03T06:21:14;18.27;;;11.03;;
20324;SDS011;10320;49.482;11.256;2022-11-03T06:23:41;20.73;;;12.17;;
20324;SDS011;10320;49.482;11.256;2022-11-03T06:26:13;16.73;;;10.87;;
20324;SDS011;10320;49.482;11.256;2022-11-03T06:28:41;18.03;;;11.00;;
20324;SDS011;10320;49.482;11.256;2022-11-03T06:31:17;18.60;;;11.30;;
20324;SDS011;10320;49.482;11.256;2022-11-03T06:33:44;18.63;;;11.83;;
20324;SDS011;10320;49.482;11.256;2022-11-03T06:36:12;20.77;;;12.93;;
20324;SDS011;10320;49.482;11.256;2022-11-03T06:38:40;22.40;;;12.43;;
20324;SDS011;10320;49.482;11.256;2022-11-03T06:41:13;20.67;;;12.30;;
20324;SDS011;10320;49.482;11.256;2022-11-03T06:43:42;21.07;;;12.90;;
20324;SDS011;10320;49.482;11.256;2022-11-03T06:46:27;23.53;;;13.73;;
20324;SDS011;10320;49.482;11.256;2022-11-03T06:48:54;18.83;;;12.40;;
20324;SDS011;10320;49.482;11.256;2022-11-03T06:51:26;20.53;;;12.70;;
20324;SDS011;10320;49.482;11.256;2022-11-03T06:53:52;18.20;;;12.17;;
20324;SDS011;10320;49.482;11.256;2022-11-03T06:56:20;20.93;;;12.60;;
20324;SDS011;10320;49.482;11.256;2022-11-03T06:58:47;17.37;;;12.17;;
20324;SDS011;10320;49.482;11.256;2022-11-03T07:03:39;17.73;;;11.53;;
20324;SDS011;10320;49.482;11.256;2022-11-03T07:08:38;18.27;;;11.57;;
20324;SDS011;10320;49.482;11.256;2022-11-03T07:13:43;17.77;;;12.53;;
20324;SDS011;10320;49.482;11.256;2022-11-03T07:16:32;20.10;;;12.27;;
20324;SDS011;10320;49.482;11.256;2022-11-03T07:18:58;17.10;;;11.97;;
20324;SDS011;10320;49.482;11.256;2022-11-03T07:23:50;34.00;;;19.83;;
20324;SDS011;10320;49.482;11.256;2022-11-03T07:26:17;28.97;;;17.97;;
20324;SDS011;10320;49.482;11.256;2022-11-03T07:28:43;22.53;;;15.47;;
20324;SDS011;10320;49.482;11.256;2022-11-03T07:31:17;20.93;;;14.03;;
20324;SDS011;10320;49.482;11.256;2022-11-03T07:33:43;19.70;;;13.03;;
20324;SDS011;10320;49.482;11.256;2022-11-03T07:36:11;17.60;;;11.90;;
20324;SDS011;10320;49.482;11.256;2022-11-03T07:38:38;19.17;;;13.30;;
20324;SDS011;10320;49.482;11.256;2022-11-03T07:41:07;20.30;;;13.00;;
20324;SDS011;10320;49.482;11.256;2022-11-03T07:43:34;17.50;;;12.27;;
20324;SDS011;10320;49.482;11.256;2022-11-03T07:46:01;21.90;;;13.63;;
20324;SDS011;10320;49.482;11.256;2022-11-03T07:48:31;19.17;;;13.03;;
20324;SDS011;10320;49.482;11.256;2022-11-03T07:51:00;19.00;;;13.20;;
20324;SDS011;10320;49.482;11.256;2022-11-03T07:53:41;17.80;;;12.50;;
20324;SDS011;10320;49.482;11.256;2022-11-03T07:58:39;14.87;;;11.67;;
20324;SDS011;10320;49.482;11.256;2022-11-03T08:02:10;16.37;;;12.50;;
20324;SDS011;10320;49.482;11.256;2022-11-03T08:04:05;14.63;;;11.10;;
20324;SDS011;10320;49.482;11.256;2022-11-03T08:06:32;14.87;;;11.97;;
20324;SDS011;10320;49.482;11.256;2022-11-03T08:08:58;15.67;;;11.27;;
20324;SDS011;10320;49.482;11.256;2022-11-03T08:11:24;17.40;;;11.17;;
20324;SDS011;10320;49.482;11.256;2022-11-03T08:13:50;14.70;;;10.80;;
20324;SDS011;10320;49.482;11.256;2022-11-03T08:16:16;14.87;;;11.03;;
20324;SDS011;10320;49.482;11.256;2022-11-03T08:18:42;11.53;;;9.93;;
20324;SDS011;10320;49.482;11.256;2022-11-03T08:21:09;13.00;;;10.03;;
20324;SDS011;10320;49.482;11.256;2022-11-03T08:23:35;14.13;;;9.90;;
20324;SDS011;10320;49.482;11.256;2022-11-03T08:26:01;12.73;;;9.70;;
20324;SDS011;10320;49.482;11.256;2022-11-03T08:28:27;11.37;;;9.30;;
20324;SDS011;10320;49.482;11.256;2022-11-03T08:30:53;11.80;;;9.87;;
20324;SDS011;10320;49.482;11.256;2022-11-03T08:33:25;11.60;;;8.57;;
20324;SDS011;10320;49.482;11.256;2022-11-03T08:35:51;12.47;;;9.53;;
20324;SDS011;10320;49.482;11.256;2022-11-03T08:38:17;10.93;;;8.67;;
20324;SDS011;10320;49.482;11.256;2022-11-03T08:40:43;12.13;;;9.33;;
20324;SDS011;10320;49.482;11.256;2022-11-03T08:43:09;12.57;;;8.23;;
20324;SDS011;10320;49.482;11.256;2022-11-03T08:45:35;9.13;;;7.83;;
20324;SDS011;10320;49.482;11.256;2022-11-03T08:48:01;9.50;;;7.47;;
20324;SDS011;10320;49.482;11.256;2022-11-03T08:50:27;10.60;;;7.60;;
20324;SDS011;10320;49.482;11.256;2022-11-03T08:52:53;7.63;;;6.90;;
20324;SDS011;10320;49.482;11.256;2022-11-03T08:55:19;8.77;;;6.43;;
20324;SDS011;10320;49.482;11.256;2022-11-03T08:57:45;7.47;;;6.17;;
20324;SDS011;10320;49.482;11.256;2022-11-03T09:00:11;6.80;;;6.10;;
20324;SDS011;10320;49.482;11.256;2022-11-03T09:02:38;7.27;;;5.83;;
20324;SDS011;10320;49.482;11.256;2022-11-03T09:05:04;6.27;;;5.67;;
20324;SDS011;10320;49.482;11.256;2022-11-03T09:07:31;10.33;;;6.10;;
20324;SDS011;10320;49.482;11.256;2022-11-03T09:09:57;7.47;;;5.10;;
20324;SDS011;10320;49.482;11.256;2022-11-03T09:12:23;7.83;;;5.00;;
20324;SDS011;10320;49.482;11.256;2022-11-03T09:14:49;9.27;;;4.17;;
20324;SDS011;10320;49.482;11.256;2022-11-03T09:17:15;5.17;;;3.70;;
20324;SDS011;10320;49.482;11.256;2022-11-03T09:19:41;7.23;;;3.60;;
20324;SDS011;10320;49.482;11.256;2022-11-03T09:22:07;4.93;;;3.40;;
20324;SDS011;10320;49.482;11.256;2022-11-03T09:24:33;5.37;;;2.90;;
20324;SDS011;10320;49.482;11.256;2022-11-03T09:26:59;4.23;;;3.00;;
20324;SDS011;10320;49.482;11.256;2022-11-03T09:29:26;5.47;;;3.17;;
20324;SDS011;10320;49.482;11.256;2022-11-03T09:31:51;3.57;;;2.70;;
20324;SDS011;10320;49.482;11.256;2022-11-03T09:34:17;3.97;;;2.80;;
20324;SDS011;10320;49.482;11.256;2022-11-03T09:36:43;4.43;;;3.03;;
20324;SDS011;10320;49.482;11.256;2022-11-03T09:39:09;3.63;;;2.97;;
20324;SDS011;10320;49.482;11.256;2022-11-03T09:41:35;5.40;;;3.10;;
20324;SDS011;10320;49.482;11.256;2022-11-03T09:44:02;5.63;;;2.87;;
20324;SDS011;10320;49.482;11.256;2022-11-03T09:46:28;5.80;;;3.00;;
20324;SDS011;10320;49.482;11.256;2022-11-03T09:48:54;4.53;;;2.50;;
20324;SDS011;10320;49.482;11.256;2022-11-03T09:51:21;5.53;;;2.80;;
20324;SDS011;10320;49.482;11.256;2022-11-03T09:53:48;3.67;;;2.50;;
20324;SDS011;10320;49.482;11.256;2022-11-03T09:56:15;5.77;;;2.90;;
20324;SDS011;10320;49.482;11.256;2022-11-03T09:58:42;3.63;;;2.77;;
20324;SDS011;10320;49.482;11.256;2022-11-03T10:01:09;3.37;;;2.60;;
20324;SDS011;10320;49.482;11.256;2022-11-03T10:03:35;3.60;;;2.80;;
20324;SDS011;10320;49.482;11.256;2022-11-03T10:06:03;5.77;;;2.90;;
20324;SDS011;10320;49.482;11.256;2022-11-03T10:08:30;6.30;;;3.07;;
20324;SDS011;10320;49.482;11.256;2022-11-03T10:10:57;3.60;;;2.60;;
20324;SDS011;10320;49.482;11.256;2022-11-03T10:13:31;3.73;;;2.97;;
20324;SDS011;10320;49.482;11.256;2022-11-03T10:15:58;5.00;;;3.20;;
20324;SDS011;10320;49.482;11.256;2022-11-03T10:18:24;5.70;;;3.50;;
20324;SDS011;10320;49.482;11.256;2022-11-03T10:20:51;4.20;;;3.00;;
20324;SDS011;10320;49.482;11.256;2022-11-03T10:23:17;5.93;;;2.90;;
20324;SDS011;10320;49.482;11.256;2022-11-03T10:25:43;4.70;;;2.90;;
20324;SDS011;10320;49.482;11.256;2022-11-03T10:28:18;5.50;;;3.30;;
20324;SDS011;10320;49.482;11.256;2022-11-03T10:35:58;6.30;;;3.67;;
20324;SDS011;10320;49.482;11.256;2022-11-03T10:38:25;5.77;;;3.63;;
20324;SDS011;10320;49.482;11.256;2022-11-03T10:40:52;5.00;;;3.50;;
20324;SDS011;10320;49.482;11.256;2022-11-03T10:43:18;5.27;;;3.80;;
20324;SDS011;10320;49.482;11.256;2022-11-03T10:45:44;5.13;;;3.33;;
20324;SDS011;10320;49.482;11.256;2022-11-03T10:48:10;5.57;;;3.30;;
20324;SDS011;10320;49.482;11.256;2022-11-03T10:50:39;7.60;;;4.17;;
20324;SDS011;10320;49.482;11.256;2022-11-03T10:53:16;5.20;;;3.70;;
20324;SDS011;10320;49.482;11.256;2022-11-03T10:55:43;5.93;;;3.77;;
20324;SDS011;10320;49.482;11.256;2022-11-03T10:58:09;5.43;;;4.17;;
20324;SDS011;10320;49.482;11.256;2022-11-03T11:00:35;5.23;;;3.90;;
20324;SDS011;10320;49.482;11.256;2022-11-03T11:03:00;7.53;;;4.27;;
20324;SDS011;10320;49.482;11.256;2022-11-03T11:05:27;6.47;;;3.60;;
20324;SDS011;10320;49.482;11.256;2022-11-03T11:07:53;5.23;;;3.80;;
20324;SDS011;10320;49.482;11.256;2022-11-03T11:15:49;5.00;;;3.67;;
20324;SDS011;10320;49.482;11.256;2022-11-03T11:20:57;4.87;;;3.20;;
20324;SDS011;10320;49.482;11.256;2022-11-03T11:28:44;5.10;;;3.50;;
20324;SDS011;10320;49.482;11.256;2022-11-03T11:31:27;3.77;;;3.37;;
20324;SDS011;10320;49.482;11.256;2022-11-03T11:36:42;6.10;;;3.60;;
20324;SDS011;10320;49.482;11.256;2022-11-03T11:39:10;4.20;;;3.50;;
20324;SDS011;10320;49.482;11.256;2022-11-03T11:48:08;5.27;;;3.60;;
20324;SDS011;10320;49.482;11.256;2022-11-03T11:52:41;5.03;;;3.30;;
20324;SDS011;10320;49.482;11.256;2022-11-03T11:55:50;4.47;;;2.93;;
20324;SDS011;10320;49.482;11.256;2022-11-03T11:57:58;4.07;;;3.30;;
20324;SDS011;10320;49.482;11.256;2022-11-03T12:00:26;3.70;;;3.20;;
20324;SDS011;10320;49.482;11.256;2022-11-03T12:02:53;5.57;;;3.43;;
20324;SDS011;10320;49.482;11.256;2022-11-03T12:05:24;6.07;;;3.20;;
20324;SDS011;10320;49.482;11.256;2022-11-03T12:07:51;4.37;;;3.20;;
20324;SDS011;10320;49.482;11.256;2022-11-03T12:10:19;4.57;;;2.97;;
20324;SDS011;10320;49.482;11.256;2022-11-03T12:12:47;4.63;;;3.30;;
20324;SDS011;10320;49.482;11.256;2022-11-03T12:17:57;4.37;;;3.40;;
20324;SDS011;10320;49.482;11.256;2022-11-03T12:20:33;5.40;;;3.60;;
20324;SDS011;10320;49.482;11.256;2022-11-03T12:23:00;5.87;;;3.60;;
20324;SDS011;10320;49.482;11.256;2022-11-03T12:25:33;6.13;;;3.87;;
20324;SDS011;10320;49.482;11.256;2022-11-03T12:28:00;5.57;;;3.70;;
20324;SDS011;10320;49.482;11.256;2022-11-03T12:30:26;6.70;;;4.30;;
20324;SDS011;10320;49.482;11.256;2022-11-03T12:32:52;8.53;;;4.17;;
20324;SDS011;10320;49.482;11.256;2022-11-03T12:35:18;8.43;;;6.43;;
20324;SDS011;10320;49.482;11.256;2022-11-03T12:37:44;5.40;;;4.13;;
20324;SDS011;10320;49.482;11.256;2022-11-03T12:40:11;6.27;;;3.83;;
20324;SDS011;10320;49.482;11.256;2022-11-03T12:42:38;5.43;;;3.73;;
20324;SDS011;10320;49.482;11.256;2022-11-03T12:45:04;6.17;;;3.70;;
20324;SDS011;10320;49.482;11.256;2022-11-03T12:47:31;6.97;;;3.97;;
20324;SDS011;10320;49.482;11.256;2022-11-03T12:49:57;6.63;;;3.80;;
20324;SDS011;10320;49.482;11.256;2022-11-03T12:52:23;6.00;;;4.00;;
20324;SDS011;10320;49.482;11.256;2022-11-03T12:54:49;9.20;;;4.17;;
20324;SDS011;10320;49.482;11.256;2022-11-03T12:57:15;5.27;;;3.63;;
20324;SDS011;10320;49.482;11.256;2022-11-03T12:59:41;7.33;;;4.10;;
20324;SDS011;10320;49.482;11.256;2022-11-03T13:02:08;7.53;;;3.80;;
20324;SDS011;10320;49.482;11.256;2022-11-03T13:04:35;6.33;;;3.80;;
20324;SDS011;10320;49.482;11.256;2022-11-03T13:07:01;5.60;;;3.73;;
20324;SDS011;10320;49.482;11.256;2022-11-03T13:09:27;6.53;;;3.90;;
20324;SDS011;10320;49.482;11.256;2022-11-03T13:11:53;6.77;;;3.63;;
20324;SDS011;10320;49.482;11.256;2022-11-03T13:14:37;4.90;;;3.80;;
20324;SDS011;10320;49.482;11.256;2022-11-03T13:17:03;4.57;;;3.40;;
20324;SDS011;10320;49.482;11.256;2022-11-03T13:19:30;6.10;;;3.87;;
20324;SDS011;10320;49.482;11.256;2022-11-03T13:21:56;5.40;;;3.67;;
20324;SDS011;10320;49.482;11.256;2022-11-03T13:24:22;6.30;;;3.43;;
20324;SDS011;10320;49.482;11.256;2022-11-03T13:26:48;6.00;;;3.60;;
20324;SDS011;10320;49.482;11.256;2022-11-03T13:29:14;7.37;;;3.40;;
20324;SDS011;10320;49.482;11.256;2022-11-03T13:31:40;4.97;;;3.70;;
20324;SDS011;10320;49.482;11.256;2022-11-03T13:34:06;3.80;;;3.03;;
20324;SDS011;10320;49.482;11.256;2022-11-03T13:36:32;5.87;;;3.40;;
20324;SDS011;10320;49.482;11.256;2022-11-03T13:38:58;5.63;;;3.77;;
20324;SDS011;10320;49.482;11.256;2022-11-03T13:41:24;5.60;;;3.57;;
20324;SDS011;10320;49.482;11.256;2022-11-03T13:43:50;4.43;;;3.60;;
20324;SDS011;10320;49.482;11.256;2022-11-03T13:46:16;5.83;;;3.70;;
20324;SDS011;10320;49.482;11.256;2022-11-03T13:48:42;5.83;;;3.70;;
20324;SDS011;10320;49.482;11.256;2022-11-03T13:51:08;4.50;;;3.17;;
20324;SDS011;10320;49.482;11.256;2022-11-03T13:53:35;4.53;;;3.47;;
20324;SDS011;10320;49.482;11.256;2022-11-03T13:56:02;5.43;;;3.77;;
20324;SDS011;10320;49.482;11.256;2022-11-03T13:58:28;5.20;;;4.03;;
20324;SDS011;10320;49.482;11.256;2022-11-03T14:00:57;8.83;;;3.80;;
20324;SDS011;10320;49.482;11.256;2022-11-03T14:03:23;4.77;;;3.77;;
20324;SDS011;10320;49.482;11.256;2022-11-03T14:05:49;5.90;;;3.40;;
20324;SDS011;10320;49.482;11.256;2022-11-03T14:08:15;5.03;;;3.60;;
20324;SDS011;10320;49.482;11.256;2022-11-03T14:10:41;6.17;;;4.00;;
20324;SDS011;10320;49.482;11.256;2022-11-03T14:13:07;5.97;;;4.23;;
20324;SDS011;10320;49.482;11.256;2022-11-03T14:15:33;5.57;;;4.10;;
20324;SDS011;10320;49.482;11.256;2022-11-03T14:17:59;7.87;;;5.33;;
20324;SDS011;10320;49.482;11.256;2022-11-03T14:20:25;7.73;;;4.30;;
20324;SDS011;10320;49.482;11.256;2022-11-03T14:22:51;6.93;;;4.23;;
20324;SDS011;10320;49.482;11.256;2022-11-03T14:25:17;6.20;;;4.30;;
20324;SDS011;10320;49.482;11.256;2022-11-03T14:27:44;7.97;;;4.30;;
20324;SDS011;10320;49.482;11.256;2022-11-03T14:30:11;7.17;;;4.67;;
20324;SDS011;10320;49.482;11.256;2022-11-03T14:32:37;8.07;;;4.90;;
20324;SDS011;10320;49.482;11.256;2022-11-03T14:35:03;6.63;;;4.60;;
20324;SDS011;10320;49.482;11.256;2022-11-03T14:37:29;6.47;;;3.93;;
20324;SDS011;10320;49.482;11.256;2022-11-03T14:39:55;5.90;;;4.20;;
20324;SDS011;10320;49.482;11.256;2022-11-03T14:42:21;5.67;;;4.30;;
20324;SDS011;10320;49.482;11.256;2022-11-03T14:44:49;6.90;;;4.13;;
20324;SDS011;10320;49.482;11.256;2022-11-03T14:47:16;6.37;;;4.63;;
20324;SDS011;10320;49.482;11.256;2022-11-03T14:49:42;9.93;;;4.40;;
20324;SDS011;10320;49.482;11.256;2022-11-03T14:52:08;6.60;;;4.30;;
20324;SDS011;10320;49.482;11.256;2022-11-03T14:54:34;7.23;;;4.60;;
20324;SDS011;10320;49.482;11.256;2022-11-03T14:57:01;6.60;;;4.60;;
20324;SDS011;10320;49.482;11.256;2022-11-03T14:59:27;4.73;;;4.23;;
20324;SDS011;10320;49.482;11.256;2022-11-03T15:01:53;6.23;;;4.27;;
20324;SDS011;10320;49.482;11.256;2022-11-03T15:04:19;6.23;;;4.27;;
20324;SDS011;10320;49.482;11.256;2022-11-03T15:06:46;5.67;;;4.47;;
20324;SDS011;10320;49.482;11.256;2022-11-03T15:09:12;6.93;;;4.33;;
20324;SDS011;10320;49.482;11.256;2022-11-03T15:11:39;6.63;;;4.90;;
20324;SDS011;10320;49.482;11.256;2022-11-03T15:14:05;5.43;;;4.77;;
20324;SDS011;10320;49.482;11.256;2022-11-03T15:16:31;5.37;;;4.80;;
20324;SDS011;10320;49.482;11.256;2022-11-03T15:18:59;8.10;;;4.60;;
20324;SDS011;10320;49.482;11.256;2022-11-03T15:21:27;8.13;;;4.30;;
20324;SDS011;10320;49.482;11.256;2022-11-03T15:23:53;6.93;;;4.80;;